sensor_id;sensor_type;location;lat;lon;timestamp;P1;durP1;ratioP1;P2;durP2;ratioP2
38130;SDS011;23947;51.894;4.622;2022-07-23T00:01:30;7.00;;;2.53;;
38130;SDS011;23947;51.894;4.622;2022-07-23T00:03:56;6.68;;;2.58;;
38130;SDS011;23947;51.894;4.622;2022-07-23T00:06:22;5.20;;;2.30;;
38130;SDS011;23947;51.894;4.622;2022-07-23T00:08:48;8.50;;;2.80;;
38130;SDS011;23947;51.894;4.622;2022-07-23T00:11:14;7.25;;;2.50;;
38130;SDS011;23947;51.894;4.622;2022-07-23T00:13:40;7.35;;;2.00;;
38130;SDS011;23947;51.894;4.622;2022-07-23T00:16:06;4.93;;;2.15;;
38130;SDS011;23947;51.894;4.622;2022-07-23T00:18:32;8.18;;;2.20;;
38130;SDS011;23947;51.894;4.622;2022-07-23T00:20:58;8.38;;;2.10;;
38130;SDS011;23947;51.894;4.622;2022-07-23T00:23:23;8.68;;;2.05;;
38130;SDS011;23947;51.894;4.622;2022-07-23T00:25:50;8.43;;;2.10;;
38130;SDS011;23947;51.894;4.622;2022-07-23T00:28:17;5.97;;;2.08;;
38130;SDS011;23947;51.894;4.622;2022-07-23T00:30:43;4.97;;;2.00;;
38130;SDS011;23947;51.894;4.622;2022-07-23T00:33:09;6.15;;;1.70;;
38130;SDS011;23947;51.894;4.622;2022-07-23T00:35:36;7.28;;;2.05;;
38130;SDS011;23947;51.894;4.622;2022-07-23T00:38:06;6.50;;;2.05;;
38130;SDS011;23947;51.894;4.622;2022-07-23T00:43:00;8.40;;;2.08;;
38130;SDS011;23947;51.894;4.622;2022-07-23T00:45:26;6.13;;;1.85;;
38130;SDS011;23947;51.894;4.622;2022-07-23T00:47:52;8.15;;;2.00;;
38130;SDS011;23947;51.894;4.622;2022-07-23T00:50:17;7.95;;;1.75;;
38130;SDS011;23947;51.894;4.622;2022-07-23T00:52:43;6.68;;;2.03;;
38130;SDS011;23947;51.894;4.622;2022-07-23T00:55:10;7.78;;;2.33;;
38130;SDS011;23947;51.894;4.622;2022-07-23T00:57:36;6.47;;;2.20;;
38130;SDS011;23947;51.894;4.622;2022-07-23T01:00:05;10.77;;;2.53;;
38130;SDS011;23947;51.894;4.622;2022-07-23T01:02:34;5.85;;;2.40;;
38130;SDS011;23947;51.894;4.622;2022-07-23T01:04:59;7.40;;;2.60;;
38130;SDS011;23947;51.894;4.622;2022-07-23T01:07:25;6.57;;;2.30;;
38130;SDS011;23947;51.894;4.622;2022-07-23T01:09:53;6.13;;;2.38;;
38130;SDS011;23947;51.894;4.622;2022-07-23T01:12:19;9.57;;;3.03;;
38130;SDS011;23947;51.894;4.622;2022-07-23T01:14:47;7.68;;;3.40;;
38130;SDS011;23947;51.894;4.622;2022-07-23T01:17:27;7.88;;;2.70;;
38130;SDS011;23947;51.894;4.622;2022-07-23T01:19:53;7.45;;;3.00;;
38130;SDS011;23947;51.894;4.622;2022-07-23T01:22:20;7.82;;;3.13;;
38130;SDS011;23947;51.894;4.622;2022-07-23T01:24:46;7.93;;;3.22;;
38130;SDS011;23947;51.894;4.622;2022-07-23T01:27:12;7.13;;;3.38;;
38130;SDS011;23947;51.894;4.622;2022-07-23T01:29:38;9.60;;;3.05;;
38130;SDS011;23947;51.894;4.622;2022-07-23T01:32:04;8.75;;;3.38;;
38130;SDS011;23947;51.894;4.622;2022-07-23T01:34:31;9.02;;;3.05;;
38130;SDS011;23947;51.894;4.622;2022-07-23T01:36:56;7.97;;;3.30;;
38130;SDS011;23947;51.894;4.622;2022-07-23T01:39:22;9.25;;;4.25;;
38130;SDS011;23947;51.894;4.622;2022-07-23T01:41:47;7.10;;;3.20;;
38130;SDS011;23947;51.894;4.622;2022-07-23T01:44:13;12.05;;;4.22;;
38130;SDS011;23947;51.894;4.622;2022-07-23T01:46:39;8.38;;;3.63;;
38130;SDS011;23947;51.894;4.622;2022-07-23T01:49:05;11.18;;;3.58;;
38130;SDS011;23947;51.894;4.622;2022-07-23T01:51:30;9.82;;;3.83;;
38130;SDS011;23947;51.894;4.622;2022-07-23T01:53:56;8.30;;;3.70;;
38130;SDS011;23947;51.894;4.622;2022-07-23T01:56:21;7.47;;;3.85;;
38130;SDS011;23947;51.894;4.622;2022-07-23T01:58:48;10.32;;;4.03;;
38130;SDS011;23947;51.894;4.622;2022-07-23T02:01:14;8.57;;;3.63;;
38130;SDS011;23947;51.894;4.622;2022-07-23T02:03:40;8.30;;;3.80;;
38130;SDS011;23947;51.894;4.622;2022-07-23T02:06:05;9.13;;;4.03;;
38130;SDS011;23947;51.894;4.622;2022-07-23T02:08:31;9.18;;;4.20;;
38130;SDS011;23947;51.894;4.622;2022-07-23T02:10:56;8.25;;;3.53;;
38130;SDS011;23947;51.894;4.622;2022-07-23T02:13:22;10.40;;;4.63;;
38130;SDS011;23947;51.894;4.622;2022-07-23T02:15:47;9.88;;;3.80;;
38130;SDS011;23947;51.894;4.622;2022-07-23T02:18:13;7.47;;;3.88;;
38130;SDS011;23947;51.894;4.622;2022-07-23T02:20:39;10.23;;;4.32;;
38130;SDS011;23947;51.894;4.622;2022-07-23T02:23:05;9.55;;;4.53;;
38130;SDS011;23947;51.894;4.622;2022-07-23T02:25:31;10.70;;;4.38;;
38130;SDS011;23947;51.894;4.622;2022-07-23T02:27:58;9.23;;;4.60;;
38130;SDS011;23947;51.894;4.622;2022-07-23T02:30:23;8.20;;;4.00;;
38130;SDS011;23947;51.894;4.622;2022-07-23T02:32:49;8.63;;;4.45;;
38130;SDS011;23947;51.894;4.622;2022-07-23T02:35:15;10.98;;;3.92;;
38130;SDS011;23947;51.894;4.622;2022-07-23T02:37:40;8.27;;;4.07;;
38130;SDS011;23947;51.894;4.622;2022-07-23T02:40:06;8.80;;;3.90;;
38130;SDS011;23947;51.894;4.622;2022-07-23T02:42:32;8.57;;;4.05;;
38130;SDS011;23947;51.894;4.622;2022-07-23T02:44:58;9.45;;;4.35;;
38130;SDS011;23947;51.894;4.622;2022-07-23T02:47:23;9.00;;;4.38;;
38130;SDS011;23947;51.894;4.622;2022-07-23T02:49:49;8.70;;;4.40;;
38130;SDS011;23947;51.894;4.622;2022-07-23T02:52:14;12.55;;;4.65;;
38130;SDS011;23947;51.894;4.622;2022-07-23T02:54:40;9.60;;;4.20;;
38130;SDS011;23947;51.894;4.622;2022-07-23T02:57:06;8.82;;;4.18;;
38130;SDS011;23947;51.894;4.622;2022-07-23T02:59:31;10.90;;;4.43;;
38130;SDS011;23947;51.894;4.622;2022-07-23T03:01:57;10.68;;;4.80;;
38130;SDS011;23947;51.894;4.622;2022-07-23T03:04:22;8.45;;;4.72;;
38130;SDS011;23947;51.894;4.622;2022-07-23T03:06:48;7.80;;;4.50;;
38130;SDS011;23947;51.894;4.622;2022-07-23T03:09:13;13.75;;;5.03;;
38130;SDS011;23947;51.894;4.622;2022-07-23T03:11:39;9.57;;;4.43;;
38130;SDS011;23947;51.894;4.622;2022-07-23T03:14:05;10.52;;;5.57;;
38130;SDS011;23947;51.894;4.622;2022-07-23T03:16:31;9.15;;;5.05;;
38130;SDS011;23947;51.894;4.622;2022-07-23T03:18:57;12.95;;;5.15;;
38130;SDS011;23947;51.894;4.622;2022-07-23T03:21:22;10.30;;;5.18;;
38130;SDS011;23947;51.894;4.622;2022-07-23T03:23:48;10.35;;;5.07;;
38130;SDS011;23947;51.894;4.622;2022-07-23T03:26:13;11.30;;;5.68;;
38130;SDS011;23947;51.894;4.622;2022-07-23T03:28:39;12.20;;;5.45;;
38130;SDS011;23947;51.894;4.622;2022-07-23T03:31:05;11.57;;;5.00;;
38130;SDS011;23947;51.894;4.622;2022-07-23T03:33:30;12.10;;;5.00;;
38130;SDS011;23947;51.894;4.622;2022-07-23T03:35:56;10.88;;;5.57;;
38130;SDS011;23947;51.894;4.622;2022-07-23T03:38:21;10.25;;;5.25;;
38130;SDS011;23947;51.894;4.622;2022-07-23T03:40:47;12.65;;;5.93;;
38130;SDS011;23947;51.894;4.622;2022-07-23T03:43:13;10.65;;;5.25;;
38130;SDS011;23947;51.894;4.622;2022-07-23T03:45:39;12.55;;;5.68;;
38130;SDS011;23947;51.894;4.622;2022-07-23T03:48:04;9.27;;;5.32;;
38130;SDS011;23947;51.894;4.622;2022-07-23T03:50:30;10.75;;;5.30;;
38130;SDS011;23947;51.894;4.622;2022-07-23T03:52:56;10.65;;;6.38;;
38130;SDS011;23947;51.894;4.622;2022-07-23T03:55:21;10.15;;;5.20;;
38130;SDS011;23947;51.894;4.622;2022-07-23T03:57:47;10.25;;;5.65;;
38130;SDS011;23947;51.894;4.622;2022-07-23T04:00:13;9.25;;;6.03;;
38130;SDS011;23947;51.894;4.622;2022-07-23T04:02:39;9.77;;;6.40;;
38130;SDS011;23947;51.894;4.622;2022-07-23T04:05:06;10.73;;;6.50;;
38130;SDS011;23947;51.894;4.622;2022-07-23T04:07:32;12.95;;;5.88;;
38130;SDS011;23947;51.894;4.622;2022-07-23T04:09:57;10.88;;;6.75;;
38130;SDS011;23947;51.894;4.622;2022-07-23T04:12:23;14.60;;;6.82;;
38130;SDS011;23947;51.894;4.622;2022-07-23T04:14:49;17.85;;;7.32;;
38130;SDS011;23947;51.894;4.622;2022-07-23T04:17:15;12.25;;;7.55;;
38130;SDS011;23947;51.894;4.622;2022-07-23T04:19:41;10.82;;;6.40;;
38130;SDS011;23947;51.894;4.622;2022-07-23T04:22:08;11.20;;;6.63;;
38130;SDS011;23947;51.894;4.622;2022-07-23T04:24:35;14.63;;;7.78;;
38130;SDS011;23947;51.894;4.622;2022-07-23T04:27:01;14.02;;;7.50;;
38130;SDS011;23947;51.894;4.622;2022-07-23T04:29:27;16.70;;;6.70;;
38130;SDS011;23947;51.894;4.622;2022-07-23T04:31:52;9.57;;;6.72;;
38130;SDS011;23947;51.894;4.622;2022-07-23T04:34:18;18.40;;;8.00;;
38130;SDS011;23947;51.894;4.622;2022-07-23T04:36:44;14.23;;;7.03;;
38130;SDS011;23947;51.894;4.622;2022-07-23T04:39:10;11.02;;;6.72;;
38130;SDS011;23947;51.894;4.622;2022-07-23T04:41:36;17.60;;;7.07;;
38130;SDS011;23947;51.894;4.622;2022-07-23T04:44:02;11.13;;;6.93;;
38130;SDS011;23947;51.894;4.622;2022-07-23T04:46:28;13.77;;;7.88;;
38130;SDS011;23947;51.894;4.622;2022-07-23T04:48:54;12.88;;;6.95;;
38130;SDS011;23947;51.894;4.622;2022-07-23T04:51:20;10.07;;;6.63;;
38130;SDS011;23947;51.894;4.622;2022-07-23T04:53:45;14.88;;;7.18;;
38130;SDS011;23947;51.894;4.622;2022-07-23T04:56:11;11.90;;;6.25;;
38130;SDS011;23947;51.894;4.622;2022-07-23T04:58:36;15.65;;;6.78;;
38130;SDS011;23947;51.894;4.622;2022-07-23T05:01:02;15.18;;;6.80;;
38130;SDS011;23947;51.894;4.622;2022-07-23T05:03:28;11.75;;;7.05;;
38130;SDS011;23947;51.894;4.622;2022-07-23T05:05:54;9.95;;;6.63;;
38130;SDS011;23947;51.894;4.622;2022-07-23T05:08:20;13.63;;;6.65;;
38130;SDS011;23947;51.894;4.622;2022-07-23T05:10:46;14.25;;;5.93;;
38130;SDS011;23947;51.894;4.622;2022-07-23T05:13:14;13.05;;;6.47;;
38130;SDS011;23947;51.894;4.622;2022-07-23T05:15:40;16.27;;;6.95;;
38130;SDS011;23947;51.894;4.622;2022-07-23T05:18:06;10.38;;;6.72;;
38130;SDS011;23947;51.894;4.622;2022-07-23T05:20:31;8.98;;;6.07;;
38130;SDS011;23947;51.894;4.622;2022-07-23T05:22:57;12.40;;;5.63;;
38130;SDS011;23947;51.894;4.622;2022-07-23T05:25:23;13.73;;;6.90;;
38130;SDS011;23947;51.894;4.622;2022-07-23T05:27:48;13.25;;;5.80;;
38130;SDS011;23947;51.894;4.622;2022-07-23T05:30:14;13.02;;;5.85;;
38130;SDS011;23947;51.894;4.622;2022-07-23T05:32:40;11.82;;;5.32;;
38130;SDS011;23947;51.894;4.622;2022-07-23T05:35:06;9.68;;;5.28;;
38130;SDS011;23947;51.894;4.622;2022-07-23T05:37:32;8.50;;;4.60;;
38130;SDS011;23947;51.894;4.622;2022-07-23T05:40:04;12.27;;;4.68;;
38130;SDS011;23947;51.894;4.622;2022-07-23T05:42:36;6.63;;;3.40;;
38130;SDS011;23947;51.894;4.622;2022-07-23T05:45:02;10.23;;;3.80;;
38130;SDS011;23947;51.894;4.622;2022-07-23T05:47:29;8.82;;;4.20;;
38130;SDS011;23947;51.894;4.622;2022-07-23T05:50:07;10.93;;;4.43;;
38130;SDS011;23947;51.894;4.622;2022-07-23T05:52:33;14.52;;;4.38;;
38130;SDS011;23947;51.894;4.622;2022-07-23T05:54:58;8.30;;;3.10;;
38130;SDS011;23947;51.894;4.622;2022-07-23T05:57:24;5.70;;;2.65;;
38130;SDS011;23947;51.894;4.622;2022-07-23T05:59:50;6.20;;;2.03;;
38130;SDS011;23947;51.894;4.622;2022-07-23T06:02:15;7.47;;;2.53;;
38130;SDS011;23947;51.894;4.622;2022-07-23T06:04:41;9.48;;;2.60;;
38130;SDS011;23947;51.894;4.622;2022-07-23T06:07:07;9.57;;;2.13;;
38130;SDS011;23947;51.894;4.622;2022-07-23T06:09:32;7.47;;;2.53;;
38130;SDS011;23947;51.894;4.622;2022-07-23T06:11:58;8.13;;;2.83;;
38130;SDS011;23947;51.894;4.622;2022-07-23T06:14:23;6.22;;;2.10;;
38130;SDS011;23947;51.894;4.622;2022-07-23T06:16:49;8.15;;;2.03;;
38130;SDS011;23947;51.894;4.622;2022-07-23T06:19:15;6.13;;;1.88;;
38130;SDS011;23947;51.894;4.622;2022-07-23T06:21:40;6.97;;;1.48;;
38130;SDS011;23947;51.894;4.622;2022-07-23T06:24:06;12.95;;;1.60;;
38130;SDS011;23947;51.894;4.622;2022-07-23T06:26:32;6.82;;;1.80;;
38130;SDS011;23947;51.894;4.622;2022-07-23T06:28:57;9.77;;;1.73;;
38130;SDS011;23947;51.894;4.622;2022-07-23T06:31:23;10.25;;;1.50;;
38130;SDS011;23947;51.894;4.622;2022-07-23T06:33:48;6.38;;;0.95;;
38130;SDS011;23947;51.894;4.622;2022-07-23T06:36:15;3.20;;;0.88;;
38130;SDS011;23947;51.894;4.622;2022-07-23T06:38:40;10.75;;;1.70;;
38130;SDS011;23947;51.894;4.622;2022-07-23T06:41:06;7.15;;;1.77;;
38130;SDS011;23947;51.894;4.622;2022-07-23T06:43:31;4.63;;;0.95;;
38130;SDS011;23947;51.894;4.622;2022-07-23T06:45:57;6.47;;;0.90;;
38130;SDS011;23947;51.894;4.622;2022-07-23T06:48:23;7.07;;;0.73;;
38130;SDS011;23947;51.894;4.622;2022-07-23T06:50:48;3.10;;;0.85;;
38130;SDS011;23947;51.894;4.622;2022-07-23T06:53:14;4.00;;;0.80;;
38130;SDS011;23947;51.894;4.622;2022-07-23T06:55:39;6.35;;;0.80;;
38130;SDS011;23947;51.894;4.622;2022-07-23T06:58:05;5.00;;;0.70;;
38130;SDS011;23947;51.894;4.622;2022-07-23T07:00:31;4.25;;;1.00;;
38130;SDS011;23947;51.894;4.622;2022-07-23T07:02:57;4.32;;;0.52;;
38130;SDS011;23947;51.894;4.622;2022-07-23T07:05:24;5.28;;;0.80;;
38130;SDS011;23947;51.894;4.622;2022-07-23T07:10:19;6.15;;;1.20;;
38130;SDS011;23947;51.894;4.622;2022-07-23T07:12:44;4.68;;;1.60;;
38130;SDS011;23947;51.894;4.622;2022-07-23T07:15:10;6.18;;;1.33;;
38130;SDS011;23947;51.894;4.622;2022-07-23T07:17:36;8.02;;;2.20;;
38130;SDS011;23947;51.894;4.622;2022-07-23T07:20:02;7.10;;;1.88;;
38130;SDS011;23947;51.894;4.622;2022-07-23T07:22:28;7.70;;;1.40;;
38130;SDS011;23947;51.894;4.622;2022-07-23T07:24:54;6.22;;;1.65;;
38130;SDS011;23947;51.894;4.622;2022-07-23T07:27:20;6.82;;;1.50;;
38130;SDS011;23947;51.894;4.622;2022-07-23T07:29:45;6.22;;;1.45;;
38130;SDS011;23947;51.894;4.622;2022-07-23T07:32:11;9.80;;;1.50;;
38130;SDS011;23947;51.894;4.622;2022-07-23T07:34:36;7.30;;;1.83;;
38130;SDS011;23947;51.894;4.622;2022-07-23T07:37:02;5.93;;;2.08;;
38130;SDS011;23947;51.894;4.622;2022-07-23T07:39:28;5.40;;;1.33;;
38130;SDS011;23947;51.894;4.622;2022-07-23T07:41:53;10.35;;;1.60;;
38130;SDS011;23947;51.894;4.622;2022-07-23T07:44:19;6.45;;;1.35;;
38130;SDS011;23947;51.894;4.622;2022-07-23T07:46:44;9.10;;;1.40;;
38130;SDS011;23947;51.894;4.622;2022-07-23T07:49:10;6.53;;;1.35;;
38130;SDS011;23947;51.894;4.622;2022-07-23T07:51:36;6.90;;;1.73;;
38130;SDS011;23947;51.894;4.622;2022-07-23T07:54:01;6.85;;;2.55;;
38130;SDS011;23947;51.894;4.622;2022-07-23T07:56:27;6.70;;;2.35;;
38130;SDS011;23947;51.894;4.622;2022-07-23T07:58:53;7.93;;;2.35;;
38130;SDS011;23947;51.894;4.622;2022-07-23T08:01:18;7.38;;;1.83;;
38130;SDS011;23947;51.894;4.622;2022-07-23T08:03:44;7.47;;;2.03;;
38130;SDS011;23947;51.894;4.622;2022-07-23T08:06:10;4.68;;;1.73;;
38130;SDS011;23947;51.894;4.622;2022-07-23T08:08:36;5.78;;;1.77;;
38130;SDS011;23947;51.894;4.622;2022-07-23T08:11:02;7.15;;;1.98;;
38130;SDS011;23947;51.894;4.622;2022-07-23T08:13:27;6.28;;;1.92;;
38130;SDS011;23947;51.894;4.622;2022-07-23T08:15:53;12.75;;;2.05;;
38130;SDS011;23947;51.894;4.622;2022-07-23T08:18:19;7.20;;;1.88;;
38130;SDS011;23947;51.894;4.622;2022-07-23T08:20:44;5.55;;;1.90;;
38130;SDS011;23947;51.894;4.622;2022-07-23T08:23:10;6.85;;;2.17;;
38130;SDS011;23947;51.894;4.622;2022-07-23T08:25:37;8.00;;;1.88;;
38130;SDS011;23947;51.894;4.622;2022-07-23T08:28:06;8.27;;;1.80;;
38130;SDS011;23947;51.894;4.622;2022-07-23T08:30:34;7.35;;;2.55;;
38130;SDS011;23947;51.894;4.622;2022-07-23T08:35:38;5.72;;;1.95;;
38130;SDS011;23947;51.894;4.622;2022-07-23T08:38:16;6.75;;;1.70;;
38130;SDS011;23947;51.894;4.622;2022-07-23T08:40:44;8.20;;;2.20;;
38130;SDS011;23947;51.894;4.622;2022-07-23T08:43:14;10.98;;;1.75;;
38130;SDS011;23947;51.894;4.622;2022-07-23T08:45:42;5.10;;;1.70;;
38130;SDS011;23947;51.894;4.622;2022-07-23T08:48:11;8.27;;;2.10;;
38130;SDS011;23947;51.894;4.622;2022-07-23T08:50:38;7.03;;;1.92;;
38130;SDS011;23947;51.894;4.622;2022-07-23T08:53:08;6.90;;;1.52;;
38130;SDS011;23947;51.894;4.622;2022-07-23T08:55:34;6.85;;;1.75;;
38130;SDS011;23947;51.894;4.622;2022-07-23T08:58:00;6.50;;;1.45;;
38130;SDS011;23947;51.894;4.622;2022-07-23T09:00:25;5.90;;;1.77;;
38130;SDS011;23947;51.894;4.622;2022-07-23T09:02:51;4.30;;;1.40;;
38130;SDS011;23947;51.894;4.622;2022-07-23T09:05:17;6.07;;;2.22;;
38130;SDS011;23947;51.894;4.622;2022-07-23T09:10:29;6.07;;;1.63;;
38130;SDS011;23947;51.894;4.622;2022-07-23T09:12:54;4.30;;;1.15;;
38130;SDS011;23947;51.894;4.622;2022-07-23T09:15:20;7.78;;;1.42;;
38130;SDS011;23947;51.894;4.622;2022-07-23T09:17:46;5.80;;;1.70;;
38130;SDS011;23947;51.894;4.622;2022-07-23T09:20:13;5.68;;;1.75;;
38130;SDS011;23947;51.894;4.622;2022-07-23T09:22:44;7.15;;;2.03;;
38130;SDS011;23947;51.894;4.622;2022-07-23T09:25:17;6.30;;;1.80;;
38130;SDS011;23947;51.894;4.622;2022-07-23T09:27:57;4.10;;;1.45;;
38130;SDS011;23947;51.894;4.622;2022-07-23T09:30:25;6.55;;;1.67;;
38130;SDS011;23947;51.894;4.622;2022-07-23T09:33:09;7.07;;;1.10;;
38130;SDS011;23947;51.894;4.622;2022-07-23T09:35:46;6.43;;;1.63;;
38130;SDS011;23947;51.894;4.622;2022-07-23T09:38:18;7.22;;;1.80;;
38130;SDS011;23947;51.894;4.622;2022-07-23T09:40:45;7.15;;;1.63;;
38130;SDS011;23947;51.894;4.622;2022-07-23T09:43:12;5.70;;;1.75;;
38130;SDS011;23947;51.894;4.622;2022-07-23T09:45:50;3.53;;;0.85;;
38130;SDS011;23947;51.894;4.622;2022-07-23T09:48:16;3.70;;;0.93;;
38130;SDS011;23947;51.894;4.622;2022-07-23T09:50:42;3.70;;;1.08;;
38130;SDS011;23947;51.894;4.622;2022-07-23T09:53:10;4.30;;;1.20;;
38130;SDS011;23947;51.894;4.622;2022-07-23T09:55:49;6.43;;;1.10;;
38130;SDS011;23947;51.894;4.622;2022-07-23T09:58:19;4.30;;;1.27;;
38130;SDS011;23947;51.894;4.622;2022-07-23T10:00:47;5.72;;;1.20;;
38130;SDS011;23947;51.894;4.622;2022-07-23T10:03:15;4.40;;;1.20;;
38130;SDS011;23947;51.894;4.622;2022-07-23T10:05:43;4.38;;;1.50;;
38130;SDS011;23947;51.894;4.622;2022-07-23T10:08:11;5.82;;;1.75;;
38130;SDS011;23947;51.894;4.622;2022-07-23T10:10:38;7.53;;;1.75;;
38130;SDS011;23947;51.894;4.622;2022-07-23T10:13:05;3.58;;;1.05;;
38130;SDS011;23947;51.894;4.622;2022-07-23T10:15:49;5.30;;;1.55;;
38130;SDS011;23947;51.894;4.622;2022-07-23T10:18:15;7.35;;;1.63;;
38130;SDS011;23947;51.894;4.622;2022-07-23T10:20:42;4.70;;;1.08;;
38130;SDS011;23947;51.894;4.622;2022-07-23T10:23:18;5.22;;;1.40;;
38130;SDS011;23947;51.894;4.622;2022-07-23T10:29:00;4.45;;;1.50;;
38130;SDS011;23947;51.894;4.622;2022-07-23T10:36:54;5.10;;;1.30;;
38130;SDS011;23947;51.894;4.622;2022-07-23T10:39:31;3.92;;;1.20;;
38130;SDS011;23947;51.894;4.622;2022-07-23T10:42:07;4.18;;;1.02;;
38130;SDS011;23947;51.894;4.622;2022-07-23T10:44:38;4.68;;;1.00;;
38130;SDS011;23947;51.894;4.622;2022-07-23T10:47:25;10.13;;;1.38;;
38130;SDS011;23947;51.894;4.622;2022-07-23T10:57:59;4.93;;;1.30;;
38130;SDS011;23947;51.894;4.622;2022-07-23T11:00:30;3.53;;;0.88;;
38130;SDS011;23947;51.894;4.622;2022-07-23T11:03:01;4.57;;;0.93;;
38130;SDS011;23947;51.894;4.622;2022-07-23T11:05:41;2.92;;;0.85;;
38130;SDS011;23947;51.894;4.622;2022-07-23T11:10:42;3.42;;;0.90;;
38130;SDS011;23947;51.894;4.622;2022-07-23T11:32:08;5.95;;;1.05;;
38130;SDS011;23947;51.894;4.622;2022-07-23T11:34:52;2.95;;;0.75;;
38130;SDS011;23947;51.894;4.622;2022-07-23T11:40:02;3.80;;;1.00;;
38130;SDS011;23947;51.894;4.622;2022-07-23T11:42:31;4.18;;;1.55;;
38130;SDS011;23947;51.894;4.622;2022-07-23T11:44:57;5.03;;;1.40;;
38130;SDS011;23947;51.894;4.622;2022-07-23T11:47:24;4.68;;;1.45;;
38130;SDS011;23947;51.894;4.622;2022-07-23T11:52:20;4.65;;;1.08;;
38130;SDS011;23947;51.894;4.622;2022-07-23T11:54:51;4.35;;;1.30;;
38130;SDS011;23947;51.894;4.622;2022-07-23T11:57:17;4.43;;;1.40;;
38130;SDS011;23947;51.894;4.622;2022-07-23T11:59:45;7.03;;;0.93;;
38130;SDS011;23947;51.894;4.622;2022-07-23T12:02:12;3.63;;;1.10;;
38130;SDS011;23947;51.894;4.622;2022-07-23T12:07:04;5.82;;;1.25;;
38130;SDS011;23947;51.894;4.622;2022-07-23T12:09:47;5.53;;;1.33;;
38130;SDS011;23947;51.894;4.622;2022-07-23T12:12:13;3.45;;;1.42;;
38130;SDS011;23947;51.894;4.622;2022-07-23T12:14:47;3.53;;;0.85;;
38130;SDS011;23947;51.894;4.622;2022-07-23T12:17:28;5.57;;;1.27;;
38130;SDS011;23947;51.894;4.622;2022-07-23T12:19:57;6.05;;;1.30;;
38130;SDS011;23947;51.894;4.622;2022-07-23T12:22:24;3.10;;;0.90;;
38130;SDS011;23947;51.894;4.622;2022-07-23T12:24:55;3.13;;;1.00;;
38130;SDS011;23947;51.894;4.622;2022-07-23T12:27:23;3.50;;;0.90;;
38130;SDS011;23947;51.894;4.622;2022-07-23T12:29:49;6.93;;;1.10;;
38130;SDS011;23947;51.894;4.622;2022-07-23T12:32:16;5.35;;;0.77;;
38130;SDS011;23947;51.894;4.622;2022-07-23T12:37:49;2.30;;;0.63;;
38130;SDS011;23947;51.894;4.622;2022-07-23T12:43:10;4.82;;;1.10;;
38130;SDS011;23947;51.894;4.622;2022-07-23T12:45:53;3.17;;;0.80;;
38130;SDS011;23947;51.894;4.622;2022-07-23T12:48:33;2.80;;;0.90;;
38130;SDS011;23947;51.894;4.622;2022-07-23T12:51:15;2.92;;;0.88;;
38130;SDS011;23947;51.894;4.622;2022-07-23T12:53:58;4.80;;;1.05;;
38130;SDS011;23947;51.894;4.622;2022-07-23T12:56:38;3.95;;;0.90;;
38130;SDS011;23947;51.894;4.622;2022-07-23T12:59:07;2.22;;;0.70;;
38130;SDS011;23947;51.894;4.622;2022-07-23T13:01:42;5.28;;;0.80;;
38130;SDS011;23947;51.894;4.622;2022-07-23T13:04:14;2.33;;;0.80;;
38130;SDS011;23947;51.894;4.622;2022-07-23T13:06:55;4.15;;;0.77;;
38130;SDS011;23947;51.894;4.622;2022-07-23T13:09:24;3.83;;;1.05;;
38130;SDS011;23947;51.894;4.622;2022-07-23T13:11:52;4.30;;;0.70;;
38130;SDS011;23947;51.894;4.622;2022-07-23T13:14:19;4.82;;;0.75;;
38130;SDS011;23947;51.894;4.622;2022-07-23T13:16:46;4.63;;;0.88;;
38130;SDS011;23947;51.894;4.622;2022-07-23T13:19:13;3.08;;;0.60;;
38130;SDS011;23947;51.894;4.622;2022-07-23T13:21:39;6.65;;;0.88;;
38130;SDS011;23947;51.894;4.622;2022-07-23T13:24:06;4.20;;;0.50;;
38130;SDS011;23947;51.894;4.622;2022-07-23T13:26:32;6.20;;;0.90;;
38130;SDS011;23947;51.894;4.622;2022-07-23T13:28:58;3.28;;;1.27;;
38130;SDS011;23947;51.894;4.622;2022-07-23T13:31:24;4.07;;;0.70;;
38130;SDS011;23947;51.894;4.622;2022-07-23T13:33:49;3.10;;;0.60;;
38130;SDS011;23947;51.894;4.622;2022-07-23T13:36:15;2.67;;;0.60;;
38130;SDS011;23947;51.894;4.622;2022-07-23T13:38:41;3.47;;;0.70;;
38130;SDS011;23947;51.894;4.622;2022-07-23T13:41:06;4.18;;;0.50;;
38130;SDS011;23947;51.894;4.622;2022-07-23T13:43:32;2.95;;;0.80;;
38130;SDS011;23947;51.894;4.622;2022-07-23T13:45:58;3.90;;;0.82;;
38130;SDS011;23947;51.894;4.622;2022-07-23T13:48:25;4.70;;;0.90;;
38130;SDS011;23947;51.894;4.622;2022-07-23T13:50:51;3.13;;;0.80;;
38130;SDS011;23947;51.894;4.622;2022-07-23T13:53:21;3.67;;;0.90;;
38130;SDS011;23947;51.894;4.622;2022-07-23T13:55:48;3.03;;;0.57;;
38130;SDS011;23947;51.894;4.622;2022-07-23T13:58:15;6.07;;;0.70;;
38130;SDS011;23947;51.894;4.622;2022-07-23T14:00:43;4.50;;;1.05;;
38130;SDS011;23947;51.894;4.622;2022-07-23T14:03:13;2.45;;;0.68;;
38130;SDS011;23947;51.894;4.622;2022-07-23T14:05:40;2.70;;;0.80;;
38130;SDS011;23947;51.894;4.622;2022-07-23T14:08:06;3.03;;;0.60;;
38130;SDS011;23947;51.894;4.622;2022-07-23T14:10:32;2.05;;;0.60;;
38130;SDS011;23947;51.894;4.622;2022-07-23T14:12:57;3.40;;;0.60;;
38130;SDS011;23947;51.894;4.622;2022-07-23T14:15:25;1.98;;;0.60;;
38130;SDS011;23947;51.894;4.622;2022-07-23T14:17:52;2.45;;;0.60;;
38130;SDS011;23947;51.894;4.622;2022-07-23T14:20:18;3.47;;;0.55;;
38130;SDS011;23947;51.894;4.622;2022-07-23T14:22:45;3.45;;;0.50;;
38130;SDS011;23947;51.894;4.622;2022-07-23T14:25:10;2.05;;;0.60;;
38130;SDS011;23947;51.894;4.622;2022-07-23T14:27:37;1.85;;;0.60;;
38130;SDS011;23947;51.894;4.622;2022-07-23T14:30:04;1.80;;;0.50;;
38130;SDS011;23947;51.894;4.622;2022-07-23T14:32:31;4.20;;;0.82;;
38130;SDS011;23947;51.894;4.622;2022-07-23T14:34:57;1.77;;;0.50;;
38130;SDS011;23947;51.894;4.622;2022-07-23T14:37:22;1.90;;;0.40;;
38130;SDS011;23947;51.894;4.622;2022-07-23T14:39:49;1.13;;;0.30;;
38130;SDS011;23947;51.894;4.622;2022-07-23T14:42:15;1.30;;;0.40;;
38130;SDS011;23947;51.894;4.622;2022-07-23T14:44:41;2.20;;;0.47;;
38130;SDS011;23947;51.894;4.622;2022-07-23T14:47:07;0.77;;;0.30;;
38130;SDS011;23947;51.894;4.622;2022-07-23T14:49:33;1.60;;;0.30;;
38130;SDS011;23947;51.894;4.622;2022-07-23T14:51:59;2.55;;;0.50;;
38130;SDS011;23947;51.894;4.622;2022-07-23T14:54:29;2.13;;;0.50;;
38130;SDS011;23947;51.894;4.622;2022-07-23T14:56:55;2.88;;;0.70;;
38130;SDS011;23947;51.894;4.622;2022-07-23T14:59:21;2.33;;;0.50;;
38130;SDS011;23947;51.894;4.622;2022-07-23T15:01:48;1.40;;;0.40;;
38130;SDS011;23947;51.894;4.622;2022-07-23T15:04:14;3.65;;;0.50;;
38130;SDS011;23947;51.894;4.622;2022-07-23T15:06:40;3.83;;;0.70;;
38130;SDS011;23947;51.894;4.622;2022-07-23T15:09:06;4.15;;;0.60;;
38130;SDS011;23947;51.894;4.622;2022-07-23T15:11:32;5.65;;;0.90;;
38130;SDS011;23947;51.894;4.622;2022-07-23T15:13:59;2.63;;;0.83;;
38130;SDS011;23947;51.894;4.622;2022-07-23T15:16:26;2.47;;;0.60;;
38130;SDS011;23947;51.894;4.622;2022-07-23T15:18:52;4.07;;;0.98;;
38130;SDS011;23947;51.894;4.622;2022-07-23T15:21:17;4.15;;;0.85;;
38130;SDS011;23947;51.894;4.622;2022-07-23T15:23:43;3.42;;;0.77;;
38130;SDS011;23947;51.894;4.622;2022-07-23T15:26:09;4.50;;;0.90;;
38130;SDS011;23947;51.894;4.622;2022-07-23T15:28:35;9.50;;;1.20;;
38130;SDS011;23947;51.894;4.622;2022-07-23T15:31:01;4.20;;;1.42;;
38130;SDS011;23947;51.894;4.622;2022-07-23T15:33:27;4.00;;;1.20;;
38130;SDS011;23947;51.894;4.622;2022-07-23T15:35:53;5.40;;;1.00;;
38130;SDS011;23947;51.894;4.622;2022-07-23T15:38:21;4.75;;;1.45;;
38130;SDS011;23947;51.894;4.622;2022-07-23T15:40:47;4.85;;;1.60;;
38130;SDS011;23947;51.894;4.622;2022-07-23T15:43:13;5.35;;;1.40;;
38130;SDS011;23947;51.894;4.622;2022-07-23T15:45:39;4.55;;;1.35;;
38130;SDS011;23947;51.894;4.622;2022-07-23T15:48:05;5.05;;;1.00;;